Time;durP1;ratioP1;P1;durP2;ratioP2;P2;SDS_P1;SDS_P2;PMS_P1;PMS_P2;Temp;Humidity;BMP_temperature;BMP_pressure;BME280_temperature;BME280_humidity;BME280_pressure;Samples;Min_cycle;Max_cycle;Signal;HPM_P1;HPM_P2
2022/03/01 00:00:50;;;;;;;26.08;11.38;;;2.50;99.90;;;;;;5089821;28;20028;-73
2022/03/01 00:03:16;;;;;;;25.75;11.60;;;2.50;99.90;;;;;;5107254;28;20031;-73
2022/03/01 00:05:42;;;;;;;23.67;11.65;;;2.50;99.90;;;;;;5090453;28;20027;-73
2022/03/01 00:08:07;;;;;;;23.27;11.32;;;2.50;99.90;;;;;;5093257;28;20502;-73
2022/03/01 00:10:33;;;;;;;23.13;11.00;;;2.50;99.90;;;;;;5094375;28;20028;-73
2022/03/01 00:13:01;;;;;;;23.92;10.52;;;2.40;99.90;;;;;;5105879;28;20074;-74
2022/03/01 00:15:27;;;;;;;22.80;10.88;;;2.50;99.90;;;;;;5108133;28;20168;-73
2022/03/01 00:17:53;;;;;;;22.63;12.10;;;2.50;99.90;;;;;;5093740;27;20110;-73
2022/03/01 00:20:18;;;;;;;22.40;10.32;;;2.40;99.90;;;;;;5092184;28;20035;-74
2022/03/01 00:22:44;;;;;;;23.23;10.95;;;2.50;99.90;;;;;;5103951;28;20035;-74
2022/03/01 00:25:12;;;;;;;21.70;10.43;;;2.50;99.90;;;;;;5091160;28;20028;-73
2022/03/01 00:27:38;;;;;;;21.08;10.25;;;2.50;99.90;;;;;;5095639;28;20060;-73
2022/03/01 00:30:04;;;;;;;25.27;10.52;;;2.50;99.90;;;;;;5109081;28;20490;-74
2022/03/01 00:32:30;;;;;;;24.13;10.52;;;2.50;99.90;;;;;;5105323;28;20055;-73
2022/03/01 00:34:58;;;;;;;24.15;10.65;;;2.40;99.90;;;;;;5097655;27;20090;-73
2022/03/01 00:37:24;;;;;;;23.85;10.55;;;2.40;99.90;;;;;;5089198;28;20485;-74
2022/03/01 00:39:50;;;;;;;25.02;10.57;;;2.40;99.90;;;;;;5112350;28;20023;-74
2022/03/01 00:42:15;;;;;;;23.67;11.50;;;2.40;99.90;;;;;;5088467;27;20142;-73
2022/03/01 00:44:41;;;;;;;19.80;9.70;;;2.40;99.90;;;;;;5111834;28;20126;-74
2022/03/01 00:47:06;;;;;;;22.13;10.75;;;2.40;99.90;;;;;;5109659;28;20027;-73
2022/03/01 00:49:34;;;;;;;23.38;10.15;;;2.40;99.90;;;;;;5112097;28;20023;-73
2022/03/01 00:51:59;;;;;;;23.45;11.38;;;2.40;99.90;;;;;;5088218;28;20031;-73
2022/03/01 00:54:25;;;;;;;23.77;10.35;;;2.30;99.90;;;;;;5111095;28;20035;-73
2022/03/01 00:56:51;;;;;;;24.35;11.30;;;2.30;99.90;;;;;;5090868;28;20027;-73
2022/03/01 00:59:16;;;;;;;22.25;10.77;;;2.30;99.90;;;;;;5090019;28;20099;-73
2022/03/01 01:01:45;;;;;;;22.30;10.30;;;2.30;99.90;;;;;;5088358;28;20061;-73
2022/03/01 01:04:13;;;;;;;21.67;10.02;;;2.30;99.90;;;;;;5071278;28;20131;-73
2022/03/01 01:06:39;;;;;;;22.45;10.05;;;2.30;99.90;;;;;;5108161;28;20032;-73
2022/03/01 01:09:05;;;;;;;21.58;9.82;;;2.30;99.90;;;;;;5105546;28;20122;-73
2022/03/01 01:11:30;;;;;;;21.55;9.80;;;2.30;99.90;;;;;;5086874;28;20038;-73
2022/03/01 01:13:56;;;;;;;21.77;10.10;;;2.30;99.90;;;;;;5105012;28;20054;-72
2022/03/01 01:16:22;;;;;;;22.90;10.30;;;2.30;99.90;;;;;;5094509;28;20059;-73
2022/03/01 01:18:48;;;;;;;21.05;9.68;;;2.30;99.90;;;;;;5107395;28;20034;-73
2022/03/01 01:21:14;;;;;;;20.20;9.85;;;2.30;99.90;;;;;;5080625;28;20020;-74
2022/03/01 01:23:41;;;;;;;24.35;9.85;;;2.30;99.90;;;;;;5086295;28;20050;-73
2022/03/01 01:26:08;;;;;;;19.25;9.95;;;2.30;99.90;;;;;;5104772;28;20023;-74
2022/03/01 01:28:34;;;;;;;18.70;9.25;;;2.20;99.90;;;;;;5109345;28;20064;-73
2022/03/01 01:31:01;;;;;;;22.77;9.98;;;2.20;99.90;;;;;;5091991;28;20035;-74
2022/03/01 01:33:27;;;;;;;21.20;9.70;;;2.20;99.90;;;;;;5100829;28;20503;-73
2022/03/01 01:35:52;;;;;;;25.45;10.40;;;2.20;99.90;;;;;;5111920;27;20019;-74
2022/03/01 01:38:18;;;;;;;21.50;9.57;;;2.20;99.90;;;;;;5110944;27;20512;-73
2022/03/01 01:40:44;;;;;;;21.98;9.10;;;2.20;99.90;;;;;;5085358;28;20023;-73
2022/03/01 01:43:09;;;;;;;24.52;10.05;;;2.20;99.90;;;;;;5098287;28;20040;-74
2022/03/01 01:45:35;;;;;;;22.38;10.13;;;2.20;99.90;;;;;;5090108;28;20028;-73
2022/03/01 01:48:02;;;;;;;22.40;9.07;;;2.20;99.90;;;;;;5108788;28;20089;-73
2022/03/01 01:50:30;;;;;;;19.23;8.85;;;2.20;99.90;;;;;;5091885;27;20113;-73
2022/03/01 01:52:56;;;;;;;18.17;8.73;;;2.20;99.90;;;;;;5109089;28;20068;-73
2022/03/01 01:55:25;;;;;;;21.83;10.27;;;2.20;99.90;;;;;;5085122;28;20077;-73
2022/03/01 01:57:51;;;;;;;18.92;8.55;;;2.20;99.90;;;;;;5094531;28;20547;-74
2022/03/01 02:00:18;;;;;;;20.98;9.63;;;2.20;99.90;;;;;;5109971;28;20023;-73
2022/03/01 02:02:44;;;;;;;22.63;10.05;;;2.20;99.90;;;;;;5067675;28;20501;-74
2022/03/01 02:05:11;;;;;;;22.08;9.40;;;2.10;99.90;;;;;;5110386;28;20088;-74
2022/03/01 02:07:37;;;;;;;21.30;9.82;;;2.10;99.90;;;;;;5085925;28;20032;-74
2022/03/01 02:10:08;;;;;;;25.42;10.23;;;2.10;99.90;;;;;;5107868;28;20028;-74
2022/03/01 02:12:36;;;;;;;20.50;9.65;;;2.10;99.90;;;;;;5083281;28;20054;-74
2022/03/01 02:15:03;;;;;;;18.63;8.93;;;2.10;99.90;;;;;;5088523;28;20067;-74
2022/03/01 02:17:28;;;;;;;21.65;10.40;;;2.10;99.90;;;;;;5108250;28;20019;-74
2022/03/01 02:19:54;;;;;;;22.15;9.93;;;2.10;99.90;;;;;;5111547;28;20057;-73
2022/03/01 02:22:20;;;;;;;21.63;8.85;;;2.10;99.90;;;;;;5085098;28;20043;-73
2022/03/01 02:24:45;;;;;;;19.20;9.05;;;2.10;99.90;;;;;;5087872;28;20034;-73
2022/03/01 02:27:11;;;;;;;18.85;9.15;;;2.10;99.90;;;;;;5104262;28;20391;-74
2022/03/01 02:29:37;;;;;;;20.70;9.18;;;2.10;99.90;;;;;;5105620;28;20032;-73
2022/03/01 02:32:06;;;;;;;18.60;8.50;;;2.10;99.90;;;;;;5087969;28;20036;-73
2022/03/01 02:34:34;;;;;;;19.90;9.20;;;2.00;99.90;;;;;;5108440;28;20035;-73
2022/03/01 02:37:08;;;;;;;21.70;9.77;;;2.00;99.90;;;;;;5094016;28;20016;-73
2022/03/01 02:39:34;;;;;;;22.60;10.07;;;2.00;99.90;;;;;;5113668;28;20030;-74
2022/03/01 02:42:00;;;;;;;19.23;8.80;;;2.00;99.90;;;;;;5093644;28;20032;-73
2022/03/01 02:44:25;;;;;;;20.80;9.07;;;2.00;99.90;;;;;;5101510;28;20023;-71
2022/03/01 02:46:51;;;;;;;18.13;9.23;;;2.00;99.90;;;;;;5088044;28;20031;-73
2022/03/01 02:49:16;;;;;;;17.75;8.95;;;2.00;99.90;;;;;;5104748;28;20072;-72
2022/03/01 02:51:42;;;;;;;21.65;9.73;;;1.90;99.90;;;;;;5121349;28;20038;-72
2022/03/01 02:54:08;;;;;;;20.25;9.45;;;2.00;99.90;;;;;;5104457;28;20026;-72
2022/03/01 02:56:35;;;;;;;20.08;9.13;;;1.90;99.90;;;;;;5122474;28;20465;-73
2022/03/01 02:59:00;;;;;;;21.05;9.70;;;1.90;99.90;;;;;;5119889;28;20012;-73
2022/03/01 03:01:27;;;;;;;20.33;9.07;;;1.90;99.90;;;;;;5102623;28;20366;-73
2022/03/01 03:03:53;;;;;;;19.90;9.20;;;1.90;99.90;;;;;;5094644;28;20099;-73
2022/03/01 03:06:19;;;;;;;24.38;10.00;;;1.80;99.90;;;;;;5108350;28;20490;-73
2022/03/01 03:08:46;;;;;;;19.67;9.48;;;1.80;99.90;;;;;;5107473;28;20028;-73
2022/03/01 03:11:12;;;;;;;23.40;10.48;;;1.80;99.90;;;;;;5118359;22;20047;-70
2022/03/01 03:13:37;;;;;;;20.45;9.43;;;1.80;99.90;;;;;;5063504;28;20122;-70
2022/03/01 03:16:04;;;;;;;21.50;9.88;;;1.80;99.90;;;;;;5062826;28;20047;-70
2022/03/01 03:18:31;;;;;;;23.92;9.45;;;1.80;99.90;;;;;;5061414;28;20142;-70
2022/03/01 03:20:57;;;;;;;22.27;9.95;;;1.80;99.90;;;;;;5063102;28;20170;-70
2022/03/01 03:23:22;;;;;;;20.63;9.82;;;1.80;99.90;;;;;;5052527;28;20376;-71
2022/03/01 03:25:48;;;;;;;22.67;9.00;;;1.80;99.90;;;;;;5058925;28;20021;-70
2022/03/01 03:28:14;;;;;;;19.40;8.95;;;1.80;99.90;;;;;;5039777;28;20032;-70
2022/03/01 03:30:40;;;;;;;23.83;9.65;;;1.80;99.90;;;;;;5060215;28;20036;-70
2022/03/01 03:33:06;;;;;;;25.30;9.80;;;1.70;99.90;;;;;;5058737;28;20029;-70
2022/03/01 03:35:32;;;;;;;21.02;11.27;;;1.80;99.90;;;;;;5053750;28;20362;-70
2022/03/01 03:37:58;;;;;;;21.92;9.43;;;1.70;99.90;;;;;;5059730;28;20021;-70
2022/03/01 03:40:24;;;;;;;22.98;9.50;;;1.70;99.90;;;;;;5059708;28;20099;-70
2022/03/01 03:42:50;;;;;;;22.10;9.70;;;1.70;99.90;;;;;;5055332;28;20143;-70
2022/03/01 03:45:15;;;;;;;22.88;9.13;;;1.70;99.90;;;;;;5060843;28;20462;-70
2022/03/01 03:47:42;;;;;;;23.48;9.80;;;1.70;99.90;;;;;;5054678;28;20025;-70
2022/03/01 03:50:12;;;;;;;21.90;9.23;;;1.70;99.90;;;;;;5062169;28;20425;-70
2022/03/01 03:52:39;;;;;;;23.25;10.73;;;1.60;99.90;;;;;;5056416;28;20064;-70
2022/03/01 03:55:06;;;;;;;23.17;9.27;;;1.60;99.90;;;;;;5058934;28;20070;-70
2022/03/01 03:57:33;;;;;;;24.08;9.55;;;1.60;99.90;;;;;;5057740;28;20036;-69
2022/03/01 04:00:00;;;;;;;17.48;8.90;;;1.50;99.90;;;;;;5057401;28;20367;-69
2022/03/01 04:02:28;;;;;;;20.88;9.35;;;1.60;99.90;;;;;;5040417;28;20021;-70
2022/03/01 04:04:54;;;;;;;22.30;9.82;;;1.50;99.90;;;;;;5057520;28;20036;-70
2022/03/01 04:07:20;;;;;;;20.25;10.00;;;1.50;99.90;;;;;;5051900;28;20028;-71
2022/03/01 04:09:45;;;;;;;23.23;10.13;;;1.50;99.90;;;;;;5058870;28;20482;-71
2022/03/01 04:12:11;;;;;;;20.23;9.02;;;1.50;99.90;;;;;;5058749;28;20041;-70
2022/03/01 04:14:36;;;;;;;22.20;10.05;;;1.50;99.90;;;;;;5061297;28;20043;-70
2022/03/01 04:17:03;;;;;;;20.83;10.07;;;1.40;99.90;;;;;;5062017;28;20059;-70
2022/03/01 04:19:28;;;;;;;22.00;9.30;;;1.40;99.90;;;;;;5043060;28;20020;-71
2022/03/01 04:21:56;;;;;;;23.63;9.98;;;1.40;99.90;;;;;;5055348;28;20025;-70
2022/03/01 04:24:22;;;;;;;21.48;9.95;;;1.40;99.90;;;;;;5058834;28;20033;-70
2022/03/01 04:26:49;;;;;;;21.63;10.23;;;1.30;99.90;;;;;;5060542;28;20056;-70
2022/03/01 04:29:15;;;;;;;22.35;9.70;;;1.30;99.90;;;;;;5056361;28;20605;-70
2022/03/01 04:31:41;;;;;;;21.05;9.95;;;1.40;99.90;;;;;;5058101;28;20040;-71
2022/03/01 04:34:08;;;;;;;20.77;9.40;;;1.30;99.90;;;;;;5071586;28;20025;-70
2022/03/01 04:36:34;;;;;;;20.95;9.60;;;1.30;99.90;;;;;;5060526;28;20092;-70
2022/03/01 04:39:00;;;;;;;24.58;9.82;;;1.30;99.90;;;;;;5060289;28;20398;-70
2022/03/01 04:41:26;;;;;;;21.02;9.48;;;1.30;99.90;;;;;;5054851;28;20033;-70
2022/03/01 04:43:52;;;;;;;24.23;9.50;;;1.30;99.90;;;;;;5057466;28;20470;-70
2022/03/01 04:46:18;;;;;;;23.67;10.38;;;1.30;99.90;;;;;;5057739;28;20067;-71
2022/03/01 04:48:45;;;;;;;22.23;9.82;;;1.20;99.90;;;;;;5056298;28;20031;-70
2022/03/01 04:51:11;;;;;;;22.35;10.30;;;1.20;99.90;;;;;;5058257;28;20028;-70
2022/03/01 04:53:39;;;;;;;23.75;9.93;;;1.20;99.90;;;;;;5059494;28;20032;-70
2022/03/01 04:56:08;;;;;;;25.58;11.18;;;1.10;99.90;;;;;;5058370;28;20040;-70
2022/03/01 04:58:36;;;;;;;19.80;9.15;;;1.10;99.90;;;;;;5057599;28;20036;-71
2022/03/01 05:01:02;;;;;;;20.13;9.40;;;1.10;99.90;;;;;;5058887;28;20030;-72
2022/03/01 05:03:28;;;;;;;20.63;9.57;;;1.10;99.90;;;;;;5061778;28;20428;-70
2022/03/01 05:05:54;;;;;;;24.65;9.95;;;1.10;99.90;;;;;;5060733;28;20107;-70
2022/03/01 05:08:19;;;;;;;23.48;9.68;;;1.10;99.90;;;;;;5056082;28;20043;-70
2022/03/01 05:10:45;;;;;;;21.67;9.77;;;1.00;99.90;;;;;;5052503;28;20028;-70
2022/03/01 05:13:11;;;;;;;20.63;9.30;;;1.00;99.90;;;;;;5055876;28;20036;-70
2022/03/01 05:15:36;;;;;;;22.95;9.52;;;1.00;99.90;;;;;;5058079;28;20021;-70
2022/03/01 05:18:02;;;;;;;25.27;9.70;;;1.00;99.90;;;;;;5055133;28;20315;-70
2022/03/01 05:20:28;;;;;;;20.65;9.85;;;1.00;99.90;;;;;;5057387;28;20070;-70
2022/03/01 05:22:54;;;;;;;21.88;9.20;;;0.90;99.90;;;;;;5061174;28;20033;-72
2022/03/01 05:25:22;;;;;;;22.75;10.18;;;0.90;99.90;;;;;;5058539;28;20647;-72
2022/03/01 05:27:49;;;;;;;20.85;9.98;;;0.90;99.90;;;;;;5055739;28;20021;-72
2022/03/01 05:30:17;;;;;;;19.58;10.32;;;0.90;99.90;;;;;;5055810;28;20482;-71
2022/03/01 05:32:50;;;;;;;22.15;9.80;;;0.80;99.90;;;;;;5051035;28;20024;-71
2022/03/01 05:35:19;;;;;;;19.50;9.45;;;0.80;99.90;;;;;;5051718;28;20025;-69
2022/03/01 05:37:47;;;;;;;21.40;9.55;;;0.80;99.90;;;;;;5069313;28;20009;-71
2022/03/01 05:40:13;;;;;;;24.65;10.35;;;0.70;99.90;;;;;;5071801;28;20032;-74
2022/03/01 05:42:39;;;;;;;20.83;9.32;;;0.70;99.90;;;;;;5048958;28;20855;-72
2022/03/01 05:45:05;;;;;;;20.52;9.23;;;0.70;99.90;;;;;;5058416;28;20032;-70
2022/03/01 05:47:31;;;;;;;23.75;9.48;;;0.70;99.90;;;;;;5053049;28;20135;-69
2022/03/01 05:49:57;;;;;;;20.92;9.27;;;0.70;99.90;;;;;;5051904;28;20390;-71
2022/03/01 05:52:23;;;;;;;23.08;10.93;;;0.70;99.90;;;;;;5050828;28;20071;-69
2022/03/01 05:54:49;;;;;;;19.63;9.38;;;0.70;99.90;;;;;;5054939;28;20031;-70
2022/03/01 05:57:16;;;;;;;21.77;9.65;;;0.70;99.90;;;;;;5053317;28;20028;-70
2022/03/01 05:59:42;;;;;;;22.27;9.88;;;0.70;99.90;;;;;;5053092;28;20371;-70
2022/03/01 06:02:08;;;;;;;20.70;9.93;;;0.60;99.90;;;;;;5050109;28;20498;-71
2022/03/01 06:04:33;;;;;;;21.48;9.88;;;0.70;99.90;;;;;;5054025;28;20104;-70
2022/03/01 06:06:59;;;;;;;23.17;10.40;;;0.70;99.90;;;;;;5056876;28;20151;-71
2022/03/01 06:09:24;;;;;;;22.30;10.10;;;0.60;99.90;;;;;;5056650;28;20048;-71
2022/03/01 06:11:50;;;;;;;27.15;11.20;;;0.60;99.90;;;;;;5051324;28;20043;-70
2022/03/01 06:14:16;;;;;;;25.08;11.32;;;0.60;99.90;;;;;;5058010;28;20024;-71
2022/03/01 06:16:43;;;;;;;20.98;9.63;;;0.70;99.90;;;;;;5055514;28;20040;-71
2022/03/01 06:19:09;;;;;;;25.85;10.98;;;0.70;99.90;;;;;;5052614;28;20024;-71
2022/03/01 06:21:35;;;;;;;25.83;10.23;;;0.60;99.90;;;;;;5056593;28;20027;-70
2022/03/01 06:24:02;;;;;;;23.08;9.57;;;0.60;99.90;;;;;;5055323;28;20496;-72
2022/03/01 06:26:28;;;;;;;22.08;10.45;;;0.70;99.90;;;;;;5057857;28;20066;-71
2022/03/01 06:28:53;;;;;;;20.52;9.98;;;0.80;99.90;;;;;;5053674;28;20029;-72
2022/03/01 06:31:19;;;;;;;20.08;10.07;;;0.80;99.90;;;;;;5047370;28;20057;-71
2022/03/01 06:33:45;;;;;;;23.75;10.27;;;0.80;99.90;;;;;;5049914;28;20090;-70
2022/03/01 06:36:11;;;;;;;21.80;10.00;;;0.70;99.90;;;;;;5043872;28;20940;-71
2022/03/01 06:38:36;;;;;;;23.23;10.07;;;0.70;99.90;;;;;;5060149;28;20060;-71
2022/03/01 06:41:05;;;;;;;23.98;10.25;;;0.70;99.90;;;;;;5055380;28;20086;-72
2022/03/01 06:43:31;;;;;;;26.83;10.90;;;0.70;99.90;;;;;;5049223;28;20018;-72
2022/03/01 06:45:56;;;;;;;24.52;10.52;;;0.70;99.90;;;;;;5049999;28;20033;-70
2022/03/01 06:48:22;;;;;;;22.23;9.93;;;0.80;99.90;;;;;;5043379;28;20562;-71
2022/03/01 06:50:50;;;;;;;24.65;11.05;;;0.80;99.90;;;;;;5051015;28;20102;-72
2022/03/01 06:53:17;;;;;;;23.23;9.77;;;0.80;99.90;;;;;;5054518;28;20028;-71
2022/03/01 06:55:44;;;;;;;25.52;10.10;;;0.80;99.90;;;;;;5054960;28;20470;-71
2022/03/01 06:58:11;;;;;;;20.77;10.27;;;0.80;99.90;;;;;;5053367;28;20028;-71
2022/03/01 07:00:36;;;;;;;25.42;11.02;;;0.90;99.90;;;;;;5053711;28;20021;-71
2022/03/01 07:03:02;;;;;;;29.15;11.07;;;0.90;99.90;;;;;;5055967;28;20040;-71
2022/03/01 07:05:29;;;;;;;23.73;9.40;;;0.90;99.90;;;;;;5054363;28;20101;-71
2022/03/01 07:07:54;;;;;;;20.95;10.20;;;0.90;99.90;;;;;;5040465;28;20029;-70
2022/03/01 07:10:20;;;;;;;18.48;9.73;;;1.00;99.90;;;;;;5055064;28;20221;-72
2022/03/01 07:12:47;;;;;;;24.95;9.82;;;1.00;99.90;;;;;;4993447;28;1187257;-71
2022/03/01 07:15:13;;;;;;;21.88;10.30;;;0.90;99.90;;;;;;5051342;28;20021;-70
2022/03/01 07:17:39;;;;;;;23.38;10.20;;;0.90;99.90;;;;;;5051990;28;20029;-71
2022/03/01 07:20:07;;;;;;;24.60;10.73;;;0.90;99.90;;;;;;5055448;28;20035;-71
2022/03/01 07:22:33;;;;;;;24.13;10.68;;;1.00;99.90;;;;;;5038231;28;20044;-72
2022/03/01 07:25:02;;;;;;;20.23;9.40;;;1.00;99.90;;;;;;5036074;28;20028;-73
2022/03/01 07:27:28;;;;;;;25.90;11.27;;;1.00;99.90;;;;;;5061306;28;20033;-72
2022/03/01 07:29:55;;;;;;;21.48;10.15;;;1.00;99.90;;;;;;5059518;28;20454;-72
2022/03/01 07:32:20;;;;;;;25.98;10.77;;;1.10;99.90;;;;;;5060128;28;20079;-70
2022/03/01 07:34:46;;;;;;;21.98;11.25;;;1.10;99.90;;;;;;5056064;28;20017;-71
2022/03/01 07:37:12;;;;;;;22.13;10.77;;;1.10;99.90;;;;;;5056786;28;20483;-71
2022/03/01 07:39:37;;;;;;;20.02;10.90;;;1.10;99.90;;;;;;5064684;28;20054;-71
2022/03/01 07:42:04;;;;;;;23.83;11.07;;;1.10;99.90;;;;;;5081126;28;20062;-71
2022/03/01 07:44:30;;;;;;;26.17;10.00;;;1.10;99.90;;;;;;5057195;28;20060;-70
2022/03/01 07:46:57;;;;;;;22.63;10.80;;;1.10;99.90;;;;;;5055413;28;20040;-71
2022/03/01 07:49:22;;;;;;;25.23;10.85;;;1.10;99.90;;;;;;5053846;28;20071;-71
2022/03/01 07:51:48;;;;;;;23.63;11.07;;;1.10;99.90;;;;;;5056468;28;20056;-71
2022/03/01 07:54:14;;;;;;;20.20;9.48;;;1.10;99.90;;;;;;5043610;28;20102;-70
2022/03/01 07:56:40;;;;;;;24.55;11.15;;;1.10;99.90;;;;;;5055801;28;20035;-71
2022/03/01 07:59:06;;;;;;;23.23;10.82;;;1.10;99.90;;;;;;5057326;28;20021;-72
2022/03/01 08:01:32;;;;;;;23.98;10.63;;;1.20;99.90;;;;;;5054667;28;20064;-70
2022/03/01 08:03:59;;;;;;;23.15;10.77;;;1.20;99.90;;;;;;5057837;28;20056;-73
2022/03/01 08:06:26;;;;;;;24.23;10.52;;;1.20;99.90;;;;;;5069705;28;20053;-71
2022/03/01 08:08:52;;;;;;;24.15;10.85;;;1.30;99.90;;;;;;5069606;28;20117;-72
2022/03/01 08:11:18;;;;;;;23.25;10.48;;;1.30;99.90;;;;;;5070044;28;20037;-71
2022/03/01 08:13:45;;;;;;;24.25;11.05;;;1.40;99.90;;;;;;5056907;28;20039;-71
2022/03/01 08:16:11;;;;;;;24.35;10.18;;;1.40;99.90;;;;;;5055891;28;20029;-71
2022/03/01 08:18:37;;;;;;;23.60;10.63;;;1.50;99.90;;;;;;5042951;28;20360;-72
2022/03/01 08:21:03;;;;;;;26.85;11.95;;;1.60;99.90;;;;;;5059052;28;20501;-72
2022/03/01 08:23:31;;;;;;;23.98;10.70;;;1.60;99.90;;;;;;5059220;28;20033;-71
2022/03/01 08:25:59;;;;;;;21.20;10.43;;;1.60;99.90;;;;;;5057659;28;20032;-71
2022/03/01 08:28:27;;;;;;;21.48;10.73;;;1.70;99.90;;;;;;5058870;28;20041;-71
2022/03/01 08:30:54;;;;;;;24.77;10.55;;;1.80;99.90;;;;;;5056871;28;20429;-71
2022/03/01 08:33:21;;;;;;;25.30;10.88;;;1.80;99.90;;;;;;5059738;28;20029;-70
2022/03/01 08:35:48;;;;;;;23.15;11.52;;;1.80;99.90;;;;;;5056000;28;20086;-71
2022/03/01 08:38:14;;;;;;;26.15;11.85;;;1.80;99.90;;;;;;5036203;28;20441;-71
2022/03/01 08:40:40;;;;;;;25.85;11.55;;;1.80;99.90;;;;;;5057159;28;20025;-73
2022/03/01 08:43:08;;;;;;;24.60;11.63;;;1.80;99.90;;;;;;5054174;28;20025;-72
2022/03/01 08:45:34;;;;;;;25.38;11.10;;;1.90;99.90;;;;;;5058870;28;20087;-73
2022/03/01 08:48:03;;;;;;;27.60;11.43;;;1.90;99.90;;;;;;5059236;28;20027;-72
2022/03/01 08:50:30;;;;;;;22.17;11.00;;;2.00;99.90;;;;;;5056529;28;20087;-71
2022/03/01 08:52:58;;;;;;;24.25;11.18;;;2.00;99.90;;;;;;5055499;28;20032;-71
2022/03/01 08:55:23;;;;;;;22.95;11.45;;;2.00;99.90;;;;;;5056114;28;20025;-71
2022/03/01 08:57:49;;;;;;;22.70;10.60;;;2.00;99.90;;;;;;5061398;28;20101;-71
2022/03/01 09:00:16;;;;;;;22.83;10.43;;;2.00;99.90;;;;;;5055664;28;20474;-72
2022/03/01 09:02:42;;;;;;;23.13;10.82;;;2.00;99.90;;;;;;5054095;28;20407;-71
2022/03/01 09:05:08;;;;;;;23.45;10.98;;;2.10;99.90;;;;;;5062644;28;20029;-71
2022/03/01 09:07:35;;;;;;;23.63;11.00;;;2.20;99.90;;;;;;5066250;28;20029;-71
2022/03/01 09:10:01;;;;;;;26.88;12.07;;;2.20;99.90;;;;;;5057278;28;20029;-71
2022/03/01 09:12:28;;;;;;;22.00;10.98;;;2.30;99.90;;;;;;5053059;28;20030;-71
2022/03/01 09:14:53;;;;;;;22.13;10.50;;;2.40;99.90;;;;;;5060871;28;20463;-72
2022/03/01 09:17:20;;;;;;;29.10;12.38;;;2.40;99.90;;;;;;5056610;28;20044;-71
2022/03/01 09:19:45;;;;;;;24.35;11.52;;;2.50;99.90;;;;;;5055403;28;20017;-72
2022/03/01 09:22:11;;;;;;;25.90;11.85;;;2.60;99.90;;;;;;5053950;28;20081;-72
2022/03/01 09:24:37;;;;;;;26.17;11.43;;;2.60;99.90;;;;;;5054927;28;20470;-72
2022/03/01 09:27:03;;;;;;;24.02;11.38;;;2.60;99.90;;;;;;5053280;28;20078;-72
2022/03/01 09:29:30;;;;;;;23.17;11.52;;;2.60;99.90;;;;;;5055548;28;20555;-71
2022/03/01 09:31:57;;;;;;;23.83;10.85;;;2.60;99.90;;;;;;5056887;28;20031;-71
2022/03/01 09:34:23;;;;;;;21.77;10.88;;;2.60;99.90;;;;;;5080245;28;20101;-71
2022/03/01 09:36:50;;;;;;;23.95;11.77;;;2.70;99.90;;;;;;5030238;28;20545;-72
2022/03/01 09:39:16;;;;;;;22.83;11.55;;;2.70;99.90;;;;;;5055351;28;20025;-72
2022/03/01 09:41:42;;;;;;;24.00;11.85;;;2.80;99.90;;;;;;5054384;28;20142;-71
2022/03/01 09:44:08;;;;;;;25.17;11.73;;;2.80;99.90;;;;;;5037309;28;20029;-71
2022/03/01 09:46:34;;;;;;;23.38;10.93;;;2.90;99.90;;;;;;5050014;28;20116;-72
2022/03/01 09:49:00;;;;;;;25.63;11.70;;;3.00;99.90;;;;;;5056801;28;20112;-71
2022/03/01 09:51:26;;;;;;;23.67;11.57;;;3.10;99.90;;;;;;5049607;28;20270;-71
2022/03/01 09:53:53;;;;;;;22.17;11.45;;;3.20;99.90;;;;;;5058280;28;20120;-71
2022/03/01 09:56:19;;;;;;;22.25;10.68;;;3.40;99.90;;;;;;5055718;28;20024;-72
2022/03/01 09:58:49;;;;;;;26.95;12.18;;;3.60;98.90;;;;;;5057722;28;20463;-71
2022/03/01 10:01:16;;;;;;;22.27;11.17;;;3.70;98.30;;;;;;5054211;28;20039;-71
2022/03/01 10:03:48;;;;;;;27.23;10.68;;;3.80;97.90;;;;;;5055310;28;20055;-71
2022/03/01 10:06:15;;;;;;;24.67;11.65;;;3.90;97.60;;;;;;5057273;28;20180;-71
2022/03/01 10:08:44;;;;;;;24.05;11.05;;;4.00;97.80;;;;;;5034939;28;20037;-71
2022/03/01 10:11:12;;;;;;;23.42;10.98;;;4.10;97.10;;;;;;5058765;28;20108;-71
2022/03/01 10:13:40;;;;;;;21.95;10.85;;;4.20;96.30;;;;;;5036307;28;20052;-72
2022/03/01 10:16:14;;;;;;;21.97;11.30;;;4.40;94.90;;;;;;5057640;28;20091;-72
2022/03/01 10:18:52;;;;;;;22.27;11.00;;;4.60;95.00;;;;;;5070026;28;20017;-71
2022/03/01 10:21:23;;;;;;;22.83;12.05;;;4.90;93.50;;;;;;5052345;28;20021;-72
2022/03/01 10:23:57;;;;;;;21.35;11.40;;;5.40;93.10;;;;;;5035665;28;20056;-72
2022/03/01 10:26:30;;;;;;;21.05;10.95;;;6.00;91.90;;;;;;5055304;28;20072;-72
2022/03/01 10:29:00;;;;;;;20.77;10.68;;;6.50;87.30;;;;;;5056166;28;20071;-72
2022/03/01 10:31:28;;;;;;;19.55;10.45;;;6.80;85.20;;;;;;5051674;28;20113;-71
2022/03/01 10:34:06;;;;;;;19.42;11.13;;;7.40;79.60;;;;;;5050550;28;20028;-72
2022/03/01 10:36:49;;;;;;;20.17;12.13;;;8.30;74.30;;;;;;5053536;28;20020;-72
2022/03/01 10:39:20;;;;;;;19.20;11.52;;;8.80;70.50;;;;;;5056029;28;20032;-72
2022/03/01 10:41:51;;;;;;;20.08;12.20;;;9.30;66.40;;;;;;5057060;28;20124;-71
2022/03/01 10:44:24;;;;;;;20.00;12.25;;;9.50;64.80;;;;;;5059691;28;20036;-72
2022/03/01 10:46:55;;;;;;;22.33;11.95;;;9.30;63.20;;;;;;5053338;28;20474;-71
2022/03/01 10:49:29;;;;;;;20.30;12.07;;;9.10;62.30;;;;;;5052532;28;20068;-72
2022/03/01 10:52:05;;;;;;;19.10;11.10;;;8.90;63.90;;;;;;5047223;28;20036;-71
2022/03/01 10:54:35;;;;;;;18.38;11.55;;;9.70;63.30;;;;;;5031059;28;20113;-72
2022/03/01 10:57:03;;;;;;;20.98;11.90;;;10.80;59.70;;;;;;5060191;28;20033;-72
2022/03/01 10:59:31;;;;;;;18.52;12.57;;;11.10;55.80;;;;;;5056261;28;21463;-72
2022/03/01 11:01:57;;;;;;;19.40;12.45;;;10.80;56.70;;;;;;5053527;28;20453;-72
2022/03/01 11:04:27;;;;;;;19.20;11.25;;;10.30;57.70;;;;;;5061233;28;20340;-72
2022/03/01 11:06:55;;;;;;;23.23;12.30;;;10.30;58.20;;;;;;5056769;28;20082;-72
2022/03/01 11:09:28;;;;;;;19.33;11.13;;;10.80;57.50;;;;;;5061009;28;20036;-72
2022/03/01 11:11:55;;;;;;;23.23;11.88;;;12.10;56.90;;;;;;5060849;28;20287;-72
2022/03/01 11:14:29;;;;;;;21.58;11.77;;;14.10;50.60;;;;;;5062865;28;20108;-73
2022/03/01 11:17:01;;;;;;;18.27;11.50;;;15.60;48.30;;;;;;5055930;28;20029;-73
2022/03/01 11:19:49;;;;;;;17.75;10.98;;;15.40;44.90;;;;;;5059097;28;20079;-72
2022/03/01 11:22:22;;;;;;;16.85;10.70;;;14.90;45.60;;;;;;5055923;28;20029;-72
2022/03/01 11:24:49;;;;;;;17.08;10.50;;;14.00;46.90;;;;;;5055436;28;20078;-71
2022/03/01 11:27:21;;;;;;;17.35;11.32;;;13.10;49.00;;;;;;5056681;28;20102;-72
2022/03/01 11:29:47;;;;;;;21.83;11.18;;;12.50;50.50;;;;;;5053682;28;20049;-77
2022/03/01 11:32:15;;;;;;;19.20;11.57;;;12.20;51.50;;;;;;5058592;28;20451;-73
2022/03/01 11:34:45;;;;;;;19.77;12.02;;;12.00;51.60;;;;;;5057040;28;20047;-71
2022/03/01 11:37:22;;;;;;;21.90;13.18;;;11.90;51.90;;;;;;5057313;28;20040;-71
2022/03/01 11:39:56;;;;;;;23.10;12.80;;;11.50;51.80;;;;;;5060901;28;20028;-71
2022/03/01 11:42:22;;;;;;;17.42;10.98;;;11.30;52.30;;;;;;5054655;28;20115;-69
2022/03/01 11:44:54;;;;;;;20.38;12.68;;;11.10;53.40;;;;;;5058177;28;20031;-69
2022/03/01 11:47:24;;;;;;;20.77;12.05;;;11.00;53.80;;;;;;5057778;28;20525;-70
2022/03/01 11:49:53;;;;;;;22.63;12.48;;;10.80;54.40;;;;;;5058148;28;20044;-69
2022/03/01 11:52:22;;;;;;;22.55;12.75;;;10.50;55.60;;;;;;5059703;28;20032;-70
2022/03/01 11:54:51;;;;;;;25.75;12.90;;;10.40;56.80;;;;;;5062377;28;20101;-69
2022/03/01 11:57:25;;;;;;;22.83;12.70;;;10.30;57.30;;;;;;5042291;28;20024;-71
2022/03/01 11:59:56;;;;;;;21.63;12.20;;;10.00;57.00;;;;;;5055486;28;20044;-69
2022/03/01 12:02:24;;;;;;;24.65;12.85;;;9.80;58.10;;;;;;5056524;28;20037;-71
2022/03/01 12:05:14;;;;;;;24.23;12.40;;;9.60;58.80;;;;;;5059132;28;20107;-70
2022/03/01 12:07:39;;;;;;;25.65;12.23;;;9.40;58.80;;;;;;5056677;28;20017;-70
2022/03/01 12:10:06;;;;;;;21.60;12.13;;;9.30;59.40;;;;;;5059800;28;20047;-71
2022/03/01 12:12:37;;;;;;;24.02;12.75;;;9.20;59.40;;;;;;5058563;28;20033;-71
2022/03/01 12:15:06;;;;;;;22.40;11.70;;;9.00;59.80;;;;;;5058105;28;20393;-72
2022/03/01 12:17:47;;;;;;;24.55;12.35;;;8.90;59.60;;;;;;5038952;28;21412;-70
2022/03/01 12:20:15;;;;;;;20.92;11.77;;;8.80;60.70;;;;;;5038367;28;20522;-70
2022/03/01 12:22:54;;;;;;;22.23;12.35;;;8.60;61.00;;;;;;5055911;28;20025;-71
2022/03/01 12:25:20;;;;;;;23.88;12.95;;;8.50;61.20;;;;;;5059093;28;20060;-71
2022/03/01 12:27:49;;;;;;;21.08;12.35;;;8.30;61.80;;;;;;5059585;28;20021;-70
2022/03/01 12:30:20;;;;;;;21.90;11.23;;;8.20;61.80;;;;;;5063407;28;20021;-70
2022/03/01 12:32:57;;;;;;;21.98;12.23;;;8.10;62.60;;;;;;5044093;28;20032;-71
2022/03/01 12:35:26;;;;;;;19.92;11.30;;;8.00;62.80;;;;;;5060852;28;20032;-71
2022/03/01 12:37:52;;;;;;;21.40;11.27;;;7.90;63.20;;;;;;5057327;28;20021;-72